AirNav   Air Wisconsin Up To $57,000 Bonus
 
 981 users online  

58KY Willow Island Airpark
Finchville, Kentucky, USA

GOING TO FINCHVILLE?


FAA INFORMATION EFFECTIVE 17 JUNE 2021

Location

FAA Identifier: 58KY
Lat/Long: 38-07-17.9700N 085-19-57.2000W
38-07.299500N 085-19.953333W
38.1216583,-85.3325556
(estimated)
Elevation: 740 ft. / 226 m (estimated)
Variation: 02W (1985)
From city: 2 miles S of FINCHVILLE, KY
Time zone: UTC -4 (UTC -5 during Standard Time)
Zip code: 40071

Airport Operations

Airport use: Private use. Permission required prior to landing
Activation date: 11/1989
Control tower: no
ARTCC: INDIANAPOLIS CENTER
FSS: LOUISVILLE FLIGHT SERVICE STATION
Attendance: UNATNDD
Segmented circle: no

Airport Communications

CTAF: 122.9
WX ASOS at LOU (17 nm W): PHONE 502-473-0693
WX ASOS at SDF (19 nm W): PHONE 502-367-1492

Nearby radio navigation aids

VOR radial/distance  VOR name  Freq  Var
IIUr084/11.6LOUISVILLE VORTAC114.8001E
FFTr263/(20.3)FRANKFORT VOR109.4003W
FTKr068/32.9FORT KNOX VOR/DME109.6001W
EWOr028/33.6NEW HOPE VOR/DME110.8001E

 
NDB name  Hdg/Dist  Freq  Var  ID
LAANG100/14.341404WLK .-.. -.-
GODMAN075/32.039603WGOI --. --- ..

Airport Services

Runway Information

Runway 11/29

Dimensions: 2500 x 100 ft. / 762 x 30 m
Surface: turf
Runway edge markings: ORANGE CONES AND BARRELS.
RUNWAY 11  RUNWAY 29
Traffic pattern: leftleft
Markings: NSTDNSTD

Runway 9/27

Dimensions: 1300 x 65 ft. / 396 x 20 m
Surface: turf
RUNWAY 9  RUNWAY 27
Traffic pattern: leftleft

Airport Ownership and Management from official FAA records

Ownership: Privately-owned
Owner: PHILIP RICHARD EVERHART
3165 TAYLOR DRIVE
CLARKSVILLE, IN 47129
Phone 812-948-0233
Manager: BRUCE EDSTEN
225 CURTIS WAY
TAYLORSVILLE, KY 40071
Phone 502-610-0026

Airport Operational Statistics

Aircraft based on the field: 23
Single engine airplanes: 23
    

Additional Remarks

FOR CD CTC LOUISVILLE APCH AT 502-375-7499

Instrument Procedures

There are no published instrument procedures at 58KY.

Some nearby airports with instrument procedures:

KLOU - Bowman Field Airport (17 nm W)
KSDF - Louisville Muhammad Ali International Airport (19 nm W)
KBRY - Samuels Field Airport (20 nm SW)
KFFT - Capital City Airport (20 nm E)
KJVY - Clark Regional Airport (24 nm NW)
 
Loc | Ops | Rwys | IFR | FBO | Links
Com | Nav | Svcs | Stats | Notes
Area around 58KY (Willow Island Airpark)
 
Road maps at: MapQuest Bing Google
 
Aerial photo
WARNING: Photo may not be current or correct
Aerial photo of 58KY (Willow Island Airpark)
Photo taken 10-Dec-2006

Do you have a better or more recent aerial photo of Willow Island Airpark that you would like to share? If so, please send us your photo.

 
Sectional chart

 
Airport distance calculator
Flying to Willow Island Airpark? Find the distance to fly.

From to 58KY

Sunrise and sunset
Times for 24-Jun-2021
 Local
(UTC-4)
 Zulu
(UTC)
Morning civil twilight05:4909:49
Sunrise06:2010:20
Sunset21:0701:07
Evening civil twilight21:3901:39

Current date and time
Zulu (UTC)  24-Jun-2021 12:19:17
Local (UTC-4)  24-Jun-2021 08:19:17
 
METAR
KLOU 
17nm W 
241153Z 15005KT 10SM CLR 19/13 A3014 RMK AO2 SLP202 T01940128 10194 20150 53007
KSDF 
19nm W 
241156Z 13007KT 10SM FEW250 19/13 A3014 RMK AO2 SLP202 T01890133 10200 20172 52007
KBRY 
20nm SW 
241155Z AUTO 00000KT 10SM CLR 16/14 A3015 RMK AO1
KFFT 
21nm E 
241153Z AUTO 15006KT 10SM CLR 18/14 A3017 RMK AO2 SLP209 T01780139 10178 20133 53008
KJVY 
24nm NW 
241155Z AUTO 00000KT 10SM CLR 17/15 A3014 RMK AO2 T01660147 10166 20124 TSNO
KFTK 
33nm SW 
241156Z AUTO 12004KT 10SM CLR 17/15 A3014 RMK AO2 SLP204 T01730149 10173 20135
TAF
KSDF 
19nm W 
241120Z 2412/2518 16004KT P6SM SCT250 FM241300 16007KT P6SM SCT250 FM241500 19011G18KT P6SM SCT060 FM250000 16008KT P6SM BKN250 FM251200 19012G22KT P6SM SCT035 BKN120
NOTAMs
Click for the latest NOTAMs
NOTAMs are issued by the DoD/FAA and will open in a separate window not controlled by AirNav.

 

 
 

Would you like to see your business listed on this page?

 If your business provides an interesting product or service to pilots, flight crews, aircraft, or users of the Willow Island Airpark, you should consider listing it here.  To start the listing process, click on the button below
 
Add a business
 

Other Pages about Willow Island Airpark

Update a link
 
Copyright © AirNav, LLC. All rights reserved. Privacy Policy  Contact